Homestead, MT (59242)

3:54 PM MDT on July 23, 2014 (GMT -0600)
RAWS MEDICINE LAKE MT US (MMLKM8) Elev 1975 ft | 48.49 °N, 104.48 °W | Change Station

Current weather conditions updated 56 minutes ago

Mostly Cloudy
Mostly Cloudy
88 °F
Feels Like 88 °F
N
14
Wind Variable Wind from SE
Gusts 22.0 mph

Today is forecast to be nearly the same temperature as yesterday.

Today
High -- | Low -- °F
--% Chance of Precip.
Yesterday
High -- | Low -- °F
Precip. -- in
5:21 AM 8:47 PM
Waning Crescent, 8% visible
Pressure 30.10 in
Visibility 10.0 miles
Clouds Mostly Cloudy 5500 ft
Heat Index 88 °F
Dew Point 62 °F
Humidity 42%
Rainfall 0.00 in
Snow Depth Not available.
UV 5 out of 12
Pollen 7.10 out of 12
Air Quality Not available.
Flu Activity Not available.
METAR KISN 232052Z AUTO 11014G26KT 10SM BKN055 31/16 A3010

More Conditions Fewer Conditions

Pressure 30.10 in
Visibility 10.0 miles
Clouds Mostly Cloudy 5500 ft
Heat Index 88 °F
Dew Point 62 °F
Humidity 42%
Rainfall 0.00 in
Snow Depth Not available.
UV 5 out of 12
Pollen 7.10 out of 12
Air Quality Not available.
Flu Activity Not available.
METAR KISN 232052Z AUTO 11014G26KT 10SM BKN055 31/16 A3010

More Conditions Fewer Conditions

10-Day Weather Forecast

Almanac

Astronomy

Jul. 23, 2014 Rise Set
Actual Time 5:21 AM MDT 8:47 PM MDT
Civil Twilight 4:43 AM MDT 9:25 PM MDT
Nautical Twilight 3:52 AM MDT 10:16 PM MDT
Astronomical Twilight 2:44 AM MDT 11:23 PM MDT
Moon 2:44 AM MDT 6:16 PM MDT
Length of Visible Light 16h 42m
Length of Day
15h 25m
Tomorrow will be 2m 23s shorter.
Waning Crescent, 8% of the Moon is Illuminated
Today
Waning Crescent
Jul 26
New
Aug 3
First Quarter
Aug 10
Full
Aug 17
Last Quarter

Today's Extremes

State Highs State Lows

Community

WunderPhotos

Upload Photos

1,736,797 photos uploaded!

Nearby

Snow Depth

Station Depth Elevation
Crystal Lake 0 in 6050 ft
Onion Park 0 in 7410 ft
Cole Creek 0 in 7850 ft
Porcupine 0 in 6500 ft
White Mill 1 in 8700 ft

Earthquake Activity

City Distance Mag. Time & Date
No recent earthquake activity has been reported nearby.
Minimum magnitude displayed is 2.5.

Coastal Water Temperatures

Place Temperature
No Stations Reporting

Nearby Weather Stations

Station Location Temp. Heat Index Dew Point Humidity Wind Precip. Elev Updated Type
RAWS MEDICINE LAKE MT, Medicine Lake, MT 88 °F 88 °F 62 °F 42% SE  at  14 mph 0.00 in / hr 1975 ft 2:58 PM MDT MADIS
HADS BIG MUDDY CREEK NEAR ANTELOPE 3S MT, Antelope, MT 86 °F 83 °F - - North  at  - 0.00 in / hr 2000 ft 2:15 PM MDT MADIS

Show More Stations Show Fewer Stations